• Join FlightAware (Why Join?)
  • Login
  • US Flag 
11:54AM EDT


 

Airport Tracker/Info


-or-


 

Live Flight TrackerFlight Track Log ✈ KAL839 ✈ 28-Apr-2013 ✈ RKSI / ICN - ZSWH / WEH

Flight Track Log - Related Links

Times and Time Zones

All times are in EDT time to prevent confusion due to time zone crossing. See the KAL839 flight status page for this flight to view local times or setup timezone preferences in your user account.

Time Position Orientation Groundspeed Altitude Reporting Facility
EDT Latitude Longitude Course Direction KTS MPH feet Rate Location/Type
01:30AM 37.4434 125.9464 266° West  Level Estimated
01:31AM 37.4380 125.8456 266° West  Level Estimated
01:32AM 37.4325 125.7448 266° West  Level Estimated
01:33AM 37.4270 125.6440 266° West  Level Estimated
01:34AM 37.4213 125.5433 266° West  Level Estimated
01:35AM 37.4156 125.4426 266° West  Level Estimated
01:36AM 37.4098 125.3419 266° West  Level Estimated
01:37AM 37.4038 125.2412 266° West  Level Estimated
01:38AM 37.3979 125.1405 266° West  Level Estimated
01:39AM 37.3918 125.0398 266° West  Level Estimated
01:40AM 37.3856 124.9392 266° West  Level Estimated
01:41AM 37.3794 124.8385 266° West  Level Estimated
01:42AM 37.3730 124.7379 266° West  Level Estimated
01:43AM 37.3666 124.6373 265° West  Level Estimated
01:44AM 37.3601 124.5368 265° West  Level Estimated
01:45AM 37.3535 124.4362 265° West  Level Estimated
01:46AM 37.3469 124.3356 265° West  Level Estimated
01:47AM 37.3401 124.2351 265° West  Level Estimated
01:48AM 37.3332 124.1346 265° West  Level Estimated
01:49AM 37.3263 124.0341 265° West  Level Estimated
01:50AM 37.3193 123.9336 265° West  Level Estimated
01:51AM 37.3122 123.8332 265° West  Level Estimated
01:52AM 37.3050 123.7328 265° West  Level Estimated
01:53AM 37.2978 123.6323 265° West  Level Estimated
01:54AM 37.2904 123.5320 265° West  Level Estimated
01:55AM 37.2830 123.4316 265° West  Level Estimated
01:56AM 37.2755 123.3312 265° West  Level Estimated
01:57AM 37.2678 123.2309 265° West  Level Estimated
01:58AM 37.2602 123.1306 265° West  Level Estimated
01:59AM 37.2540 123.0511 264° West  Level Estimated
02:00AM 37.2478 122.9716 264° West  Level Estimated
02:01AM 37.2415 122.8922 264° West  Level Estimated
02:02AM 37.2352 122.8127 264° West  Level Estimated
02:03AM 37.2288 122.7333 264° West  Level Estimated
02:04AM 37.2224 122.6539 264° West  Level Estimated
02:05AM 37.2160 122.5745 264° West  Level Estimated
02:06AM 37.2094 122.4951 264° West  Level Estimated
02:07AM 37.2028 122.4157 264° West  Level Estimated
02:08AM 37.1962 122.3364 264° West  Level Estimated
02:09AM 37.1895 122.2570 264° West  Level Estimated
02:10AM 37.1871 122.2289 264° West  Level Estimated
02:11AM 37.1871 122.2289 310° West  Level Estimated
02:12AM 37.1871 122.2289 310° West  Level Estimated
02:13AM 37.1871 122.2289 310° West  Level Estimated
02:14AM 37.1871 122.2289 310° West  Level Estimated
02:15AM 37.1871 122.2289 310° West  Level Estimated
02:16AM 37.1871 122.2289 310° West  Level Estimated
02:17AM 37.1871 122.2289 310° West  Level Estimated
02:18AM 37.1871 122.2289 310° West  Level Estimated
02:19AM 37.1871 122.2289 310° West  Level Estimated